Terminal Aerodrome Forecast
Issued by NWS

Home | Current Version | Previous Version | Text Only | Print | Product List | Glossary On
Versions: 1 2 3 4 5 6 7 8 9 10 11 12
000
FTUS44 KCRP 301129
TAFALI
TAF
KALI 301129Z 3012/3112 VRB04KT P6SM FEW024 BKN250
     FM301400 18005KT P6SM SCT025 SCT035 SCT250
     FM302000 13009G15KT P6SM SCT050
     FM310100 15007KT P6SM SKC
     FM311000 17003KT 4SM BR SCT022=

USA.gov is the U.S. government's official web portal to all federal, state and local government web resources and services.